Terminal Aerodrome Forecast
Issued by NWS Anchorage, AK

Home | Current Version | Previous Version | Text Only | Print | Product List | Glossary On
Versions: 1 2 3 4 5 6 7 8 9 10 11 12 13 14 15 16 17 18 19
000
FTAK31 PANC 051139
TAFANC
TAF
PANC 051139Z 0512/0618 16007KT P6SM SCT080 BKN120
     FM060000 04007KT P6SM -SHRA SCT040 OVC060
     FM061200 35004KT P6SM VCSH BKN070=

USA.gov is the U.S. government's official web portal to all federal, state and local government web resources and services.